Alderwood Manor, WA

5:28 AM PST on December 21, 2014 (GMT -0800)
K7WV Brierwood | Change Station
CLOSE
Current Station
Personal Weather Station
Location: Brier, WA
Elevation: 282 ft
Nearby Weather Stations

Elev 282 ft 47.80 °N, 122.26 °W | Updated 6 seconds ago

Overcast
Overcast
48.1 °F
Feels Like 48 °F
N
0.0
Wind Variable Wind from SW
Gusts 0.0 mph

Today
High -- | Low -- °F
--% Chance of Precip.
Yesterday
High -- | Low -- °F
Precip. -- in
7:55 AM 4:19 PM
Waning Crescent, 0% visible
Pressure 29.77 in
Visibility 3.0 miles
Clouds Mostly Cloudy 1900 ft
Mostly Cloudy 2400 ft
Overcast 2900 ft
Windchill 48 °F
Dew Point 48 °F
Humidity 98%
Rainfall 0.00 in
Snow Depth Not available.
UV 0 out of 12
Pollen .40 out of 12
Air Quality Not available.
Flu Activity Not available.
SPECI KPAE 211317Z AUTO 00000KT 3SM -RA BR BKN019 BKN024 OVC029 09/07 A2977 RMK AO2 P0019 T00890067

More Conditions Fewer Conditions

Pressure 29.77 in
Visibility 3.0 miles
Clouds Mostly Cloudy 1900 ft
Mostly Cloudy 2400 ft
Overcast 2900 ft
Windchill 48 °F
Dew Point 48 °F
Humidity 98%
Rainfall 0.00 in
Snow Depth Not available.
UV 0 out of 12
Pollen .40 out of 12
Air Quality Not available.
Flu Activity Not available.
SPECI KPAE 211317Z AUTO 00000KT 3SM -RA BR BKN019 BKN024 OVC029 09/07 A2977 RMK AO2 P0019 T00890067

More Conditions Fewer Conditions

10-Day Weather Forecast

Almanac

Astronomy

Dec. 21, 2014 Rise Set
Actual Time
Civil Twilight
Nautical Twilight
Astronomical Twilight
Moon
Length of Visible Light
Length of Day
Tomorrow will be .
, % of the Moon is Illuminated

Today's Extremes

State Highs State Lows

Community

WunderPhotos

Upload Photos

1,779,386 photos uploaded!

WunderBlogs® & News

Nearby

Air Quality

  Air Quality AQ Index Pollutant
Not available.

Snow Depth

Station Depth Elevation

Earthquake Activity

City Distance Mag. Time & Date
Minimum magnitude displayed is 2.5.

Coastal Water Temperatures

Place Temperature

Nearby Weather Stations